sensor_id;sensor_type;location;lat;lon;timestamp;P1;durP1;ratioP1;P2;durP2;ratioP2
1721;SDS011;858;53.190;8.596;2023-01-25T00:00:40;24.57;;;16.70;;
1721;SDS011;858;53.190;8.596;2023-01-25T00:03:06;26.20;;;16.07;;
1721;SDS011;858;53.190;8.596;2023-01-25T00:05:32;25.20;;;15.37;;
1721;SDS011;858;53.190;8.596;2023-01-25T00:07:59;25.03;;;15.93;;
1721;SDS011;858;53.190;8.596;2023-01-25T00:10:25;24.83;;;16.20;;
1721;SDS011;858;53.190;8.596;2023-01-25T00:12:52;24.30;;;15.17;;
1721;SDS011;858;53.190;8.596;2023-01-25T00:15:19;31.40;;;17.60;;
1721;SDS011;858;53.190;8.596;2023-01-25T00:17:46;28.50;;;16.67;;
1721;SDS011;858;53.190;8.596;2023-01-25T00:20:12;21.67;;;15.80;;
1721;SDS011;858;53.190;8.596;2023-01-25T00:22:39;23.67;;;15.67;;
1721;SDS011;858;53.190;8.596;2023-01-25T00:25:05;21.50;;;15.57;;
1721;SDS011;858;53.190;8.596;2023-01-25T00:27:32;26.30;;;14.80;;
1721;SDS011;858;53.190;8.596;2023-01-25T00:29:58;20.53;;;14.83;;
1721;SDS011;858;53.190;8.596;2023-01-25T00:32:40;27.20;;;15.00;;
1721;SDS011;858;53.190;8.596;2023-01-25T00:35:09;24.30;;;14.50;;
1721;SDS011;858;53.190;8.596;2023-01-25T00:37:36;26.50;;;16.33;;
1721;SDS011;858;53.190;8.596;2023-01-25T00:40:04;23.77;;;15.70;;
1721;SDS011;858;53.190;8.596;2023-01-25T00:42:31;22.20;;;15.23;;
1721;SDS011;858;53.190;8.596;2023-01-25T00:44:57;25.10;;;16.10;;
1721;SDS011;858;53.190;8.596;2023-01-25T00:47:24;24.60;;;18.03;;
1721;SDS011;858;53.190;8.596;2023-01-25T00:49:51;22.00;;;16.03;;
1721;SDS011;858;53.190;8.596;2023-01-25T00:52:18;22.00;;;16.20;;
1721;SDS011;858;53.190;8.596;2023-01-25T00:54:46;25.47;;;17.03;;
1721;SDS011;858;53.190;8.596;2023-01-25T00:57:12;27.60;;;18.27;;
1721;SDS011;858;53.190;8.596;2023-01-25T00:59:38;25.00;;;18.20;;
1721;SDS011;858;53.190;8.596;2023-01-25T01:02:08;28.73;;;17.97;;
1721;SDS011;858;53.190;8.596;2023-01-25T01:07:09;23.90;;;16.87;;
1721;SDS011;858;53.190;8.596;2023-01-25T01:09:36;33.70;;;19.77;;
1721;SDS011;858;53.190;8.596;2023-01-25T01:12:02;35.37;;;21.77;;
1721;SDS011;858;53.190;8.596;2023-01-25T01:14:29;35.47;;;21.50;;
1721;SDS011;858;53.190;8.596;2023-01-25T01:16:55;33.40;;;20.03;;
1721;SDS011;858;53.190;8.596;2023-01-25T01:19:23;32.47;;;19.30;;
1721;SDS011;858;53.190;8.596;2023-01-25T01:21:50;29.77;;;20.53;;
1721;SDS011;858;53.190;8.596;2023-01-25T01:24:18;27.00;;;19.20;;
1721;SDS011;858;53.190;8.596;2023-01-25T01:26:44;31.03;;;18.77;;
1721;SDS011;858;53.190;8.596;2023-01-25T01:29:10;32.07;;;19.60;;
1721;SDS011;858;53.190;8.596;2023-01-25T01:31:37;34.17;;;19.50;;
1721;SDS011;858;53.190;8.596;2023-01-25T01:34:03;33.83;;;20.40;;
1721;SDS011;858;53.190;8.596;2023-01-25T01:36:30;28.50;;;18.83;;
1721;SDS011;858;53.190;8.596;2023-01-25T01:38:56;31.47;;;21.77;;
1721;SDS011;858;53.190;8.596;2023-01-25T01:41:24;33.63;;;20.87;;
1721;SDS011;858;53.190;8.596;2023-01-25T01:43:51;27.27;;;20.00;;
1721;SDS011;858;53.190;8.596;2023-01-25T01:46:23;29.30;;;19.53;;
1721;SDS011;858;53.190;8.596;2023-01-25T01:48:51;32.23;;;20.00;;
1721;SDS011;858;53.190;8.596;2023-01-25T01:51:20;30.20;;;19.97;;
1721;SDS011;858;53.190;8.596;2023-01-25T01:53:49;32.60;;;21.50;;
1721;SDS011;858;53.190;8.596;2023-01-25T01:56:17;32.20;;;22.07;;
1721;SDS011;858;53.190;8.596;2023-01-25T01:58:46;30.43;;;19.17;;
1721;SDS011;858;53.190;8.596;2023-01-25T02:01:15;30.03;;;20.00;;
1721;SDS011;858;53.190;8.596;2023-01-25T02:03:42;29.10;;;19.40;;
1721;SDS011;858;53.190;8.596;2023-01-25T02:06:09;37.33;;;22.20;;
1721;SDS011;858;53.190;8.596;2023-01-25T02:08:37;36.77;;;23.23;;
1721;SDS011;858;53.190;8.596;2023-01-25T02:11:05;39.57;;;23.37;;
1721;SDS011;858;53.190;8.596;2023-01-25T02:13:32;35.40;;;21.73;;
1721;SDS011;858;53.190;8.596;2023-01-25T02:16:01;38.37;;;24.27;;
1721;SDS011;858;53.190;8.596;2023-01-25T02:18:28;35.70;;;22.90;;
1721;SDS011;858;53.190;8.596;2023-01-25T02:20:55;36.20;;;23.40;;
1721;SDS011;858;53.190;8.596;2023-01-25T02:23:23;42.53;;;24.57;;
1721;SDS011;858;53.190;8.596;2023-01-25T02:25:53;33.97;;;23.03;;
1721;SDS011;858;53.190;8.596;2023-01-25T02:28:22;38.57;;;23.57;;
1721;SDS011;858;53.190;8.596;2023-01-25T02:30:49;36.00;;;22.90;;
1721;SDS011;858;53.190;8.596;2023-01-25T02:33:16;32.30;;;20.70;;
1721;SDS011;858;53.190;8.596;2023-01-25T02:35:43;41.60;;;25.07;;
1721;SDS011;858;53.190;8.596;2023-01-25T02:38:11;40.33;;;24.43;;
1721;SDS011;858;53.190;8.596;2023-01-25T02:40:40;36.70;;;25.30;;
1721;SDS011;858;53.190;8.596;2023-01-25T02:43:09;37.70;;;24.20;;
1721;SDS011;858;53.190;8.596;2023-01-25T02:45:35;45.83;;;25.77;;
1721;SDS011;858;53.190;8.596;2023-01-25T02:48:04;40.43;;;26.13;;
1721;SDS011;858;53.190;8.596;2023-01-25T02:50:30;44.43;;;27.30;;
1721;SDS011;858;53.190;8.596;2023-01-25T02:52:57;41.87;;;26.43;;
1721;SDS011;858;53.190;8.596;2023-01-25T02:55:23;43.60;;;27.50;;
1721;SDS011;858;53.190;8.596;2023-01-25T02:57:49;37.27;;;25.30;;
1721;SDS011;858;53.190;8.596;2023-01-25T03:00:18;40.90;;;26.33;;
1721;SDS011;858;53.190;8.596;2023-01-25T03:02:44;39.97;;;26.87;;
1721;SDS011;858;53.190;8.596;2023-01-25T03:05:10;41.67;;;25.97;;
1721;SDS011;858;53.190;8.596;2023-01-25T03:07:37;40.80;;;24.73;;
1721;SDS011;858;53.190;8.596;2023-01-25T03:10:03;38.67;;;25.47;;
1721;SDS011;858;53.190;8.596;2023-01-25T03:12:30;38.97;;;25.33;;
1721;SDS011;858;53.190;8.596;2023-01-25T03:14:56;40.17;;;25.00;;
1721;SDS011;858;53.190;8.596;2023-01-25T03:17:25;43.90;;;27.03;;
1721;SDS011;858;53.190;8.596;2023-01-25T03:19:52;34.97;;;23.27;;
1721;SDS011;858;53.190;8.596;2023-01-25T03:22:18;34.80;;;23.90;;
1721;SDS011;858;53.190;8.596;2023-01-25T03:24:45;36.53;;;22.93;;
1721;SDS011;858;53.190;8.596;2023-01-25T03:27:11;44.90;;;25.67;;
1721;SDS011;858;53.190;8.596;2023-01-25T03:29:38;37.93;;;23.60;;
1721;SDS011;858;53.190;8.596;2023-01-25T03:32:05;43.43;;;23.60;;
1721;SDS011;858;53.190;8.596;2023-01-25T03:34:33;43.30;;;25.77;;
1721;SDS011;858;53.190;8.596;2023-01-25T03:37:00;41.77;;;25.17;;
1721;SDS011;858;53.190;8.596;2023-01-25T03:39:26;44.17;;;24.90;;
1721;SDS011;858;53.190;8.596;2023-01-25T03:41:53;40.93;;;25.90;;
1721;SDS011;858;53.190;8.596;2023-01-25T03:44:19;44.10;;;26.47;;
1721;SDS011;858;53.190;8.596;2023-01-25T03:46:46;38.60;;;23.57;;
1721;SDS011;858;53.190;8.596;2023-01-25T03:49:12;37.73;;;24.27;;
1721;SDS011;858;53.190;8.596;2023-01-25T03:51:40;42.37;;;24.30;;
1721;SDS011;858;53.190;8.596;2023-01-25T03:54:06;38.07;;;22.87;;
1721;SDS011;858;53.190;8.596;2023-01-25T03:56:34;42.90;;;24.80;;
1721;SDS011;858;53.190;8.596;2023-01-25T03:59:01;38.97;;;24.70;;
1721;SDS011;858;53.190;8.596;2023-01-25T04:01:27;40.23;;;23.53;;
1721;SDS011;858;53.190;8.596;2023-01-25T04:03:54;37.80;;;22.33;;
1721;SDS011;858;53.190;8.596;2023-01-25T04:06:22;38.10;;;24.77;;
1721;SDS011;858;53.190;8.596;2023-01-25T04:08:49;39.53;;;23.93;;
1721;SDS011;858;53.190;8.596;2023-01-25T04:11:16;35.50;;;21.57;;
1721;SDS011;858;53.190;8.596;2023-01-25T04:13:42;40.13;;;25.10;;
1721;SDS011;858;53.190;8.596;2023-01-25T04:16:09;39.63;;;22.47;;
1721;SDS011;858;53.190;8.596;2023-01-25T04:18:36;36.23;;;23.60;;
1721;SDS011;858;53.190;8.596;2023-01-25T04:21:03;36.90;;;22.13;;
1721;SDS011;858;53.190;8.596;2023-01-25T04:23:29;43.60;;;24.37;;
1721;SDS011;858;53.190;8.596;2023-01-25T04:25:58;43.30;;;24.47;;
1721;SDS011;858;53.190;8.596;2023-01-25T04:28:25;41.90;;;24.30;;
1721;SDS011;858;53.190;8.596;2023-01-25T04:30:52;44.73;;;25.77;;
1721;SDS011;858;53.190;8.596;2023-01-25T04:33:18;37.80;;;22.10;;
1721;SDS011;858;53.190;8.596;2023-01-25T04:35:44;42.30;;;24.70;;
1721;SDS011;858;53.190;8.596;2023-01-25T04:38:11;47.20;;;26.10;;
1721;SDS011;858;53.190;8.596;2023-01-25T04:40:38;45.70;;;26.63;;
1721;SDS011;858;53.190;8.596;2023-01-25T04:43:07;45.13;;;26.70;;
1721;SDS011;858;53.190;8.596;2023-01-25T04:45:34;44.20;;;25.70;;
1721;SDS011;858;53.190;8.596;2023-01-25T04:48:01;46.87;;;28.30;;
1721;SDS011;858;53.190;8.596;2023-01-25T04:50:28;43.50;;;25.70;;
1721;SDS011;858;53.190;8.596;2023-01-25T04:52:55;45.20;;;26.40;;
1721;SDS011;858;53.190;8.596;2023-01-25T04:55:21;51.90;;;28.37;;
1721;SDS011;858;53.190;8.596;2023-01-25T04:57:48;51.87;;;26.87;;
1721;SDS011;858;53.190;8.596;2023-01-25T05:00:17;54.17;;;28.97;;
1721;SDS011;858;53.190;8.596;2023-01-25T05:02:44;51.97;;;26.67;;
1721;SDS011;858;53.190;8.596;2023-01-25T05:05:10;48.43;;;27.33;;
1721;SDS011;858;53.190;8.596;2023-01-25T05:07:37;49.70;;;28.07;;
1721;SDS011;858;53.190;8.596;2023-01-25T05:10:04;51.20;;;28.40;;
1721;SDS011;858;53.190;8.596;2023-01-25T05:12:31;47.97;;;27.23;;
1721;SDS011;858;53.190;8.596;2023-01-25T05:14:57;47.93;;;27.63;;
1721;SDS011;858;53.190;8.596;2023-01-25T05:17:25;44.13;;;26.40;;
1721;SDS011;858;53.190;8.596;2023-01-25T05:19:51;48.80;;;27.90;;
1721;SDS011;858;53.190;8.596;2023-01-25T05:22:18;52.13;;;28.40;;
1721;SDS011;858;53.190;8.596;2023-01-25T05:24:45;45.90;;;27.93;;
1721;SDS011;858;53.190;8.596;2023-01-25T05:27:12;51.70;;;27.50;;
1721;SDS011;858;53.190;8.596;2023-01-25T05:29:38;50.47;;;28.63;;
1721;SDS011;858;53.190;8.596;2023-01-25T05:32:07;53.50;;;27.37;;
1721;SDS011;858;53.190;8.596;2023-01-25T05:34:35;55.73;;;30.60;;
1721;SDS011;858;53.190;8.596;2023-01-25T05:37:04;52.57;;;27.57;;
1721;SDS011;858;53.190;8.596;2023-01-25T05:39:33;48.27;;;25.40;;
1721;SDS011;858;53.190;8.596;2023-01-25T05:41:59;48.73;;;27.10;;
1721;SDS011;858;53.190;8.596;2023-01-25T05:44:26;47.93;;;27.00;;
1721;SDS011;858;53.190;8.596;2023-01-25T05:46:52;48.93;;;27.13;;
1721;SDS011;858;53.190;8.596;2023-01-25T05:49:19;54.53;;;29.37;;
1721;SDS011;858;53.190;8.596;2023-01-25T05:51:46;48.33;;;26.90;;
1721;SDS011;858;53.190;8.596;2023-01-25T05:54:13;48.97;;;24.57;;
1721;SDS011;858;53.190;8.596;2023-01-25T05:56:40;50.83;;;26.30;;
1721;SDS011;858;53.190;8.596;2023-01-25T05:59:08;53.70;;;28.53;;
1721;SDS011;858;53.190;8.596;2023-01-25T06:01:36;52.87;;;25.47;;
1721;SDS011;858;53.190;8.596;2023-01-25T06:04:03;54.53;;;26.87;;
1721;SDS011;858;53.190;8.596;2023-01-25T06:06:30;49.00;;;25.70;;
1721;SDS011;858;53.190;8.596;2023-01-25T06:08:58;46.10;;;26.37;;
1721;SDS011;858;53.190;8.596;2023-01-25T06:11:24;55.37;;;29.80;;
1721;SDS011;858;53.190;8.596;2023-01-25T06:13:51;51.83;;;26.93;;
1721;SDS011;858;53.190;8.596;2023-01-25T06:16:19;49.20;;;28.37;;
1721;SDS011;858;53.190;8.596;2023-01-25T06:18:45;45.73;;;25.07;;
1721;SDS011;858;53.190;8.596;2023-01-25T06:21:11;56.03;;;27.50;;
1721;SDS011;858;53.190;8.596;2023-01-25T06:23:38;47.33;;;26.30;;
1721;SDS011;858;53.190;8.596;2023-01-25T06:26:07;58.90;;;26.50;;
1721;SDS011;858;53.190;8.596;2023-01-25T06:28:34;58.20;;;29.13;;
1721;SDS011;858;53.190;8.596;2023-01-25T06:31:04;47.27;;;24.40;;
1721;SDS011;858;53.190;8.596;2023-01-25T06:33:31;45.67;;;24.33;;
1721;SDS011;858;53.190;8.596;2023-01-25T06:35:58;46.93;;;25.20;;
1721;SDS011;858;53.190;8.596;2023-01-25T06:38:25;46.90;;;25.20;;
1721;SDS011;858;53.190;8.596;2023-01-25T06:40:51;44.80;;;24.90;;
1721;SDS011;858;53.190;8.596;2023-01-25T06:43:20;51.57;;;24.87;;
1721;SDS011;858;53.190;8.596;2023-01-25T06:45:47;54.40;;;26.40;;
1721;SDS011;858;53.190;8.596;2023-01-25T06:48:16;47.97;;;24.77;;
1721;SDS011;858;53.190;8.596;2023-01-25T06:50:44;48.20;;;25.93;;
1721;SDS011;858;53.190;8.596;2023-01-25T06:53:10;53.97;;;27.37;;
1721;SDS011;858;53.190;8.596;2023-01-25T06:55:37;49.60;;;25.30;;
1721;SDS011;858;53.190;8.596;2023-01-25T06:58:03;49.63;;;26.53;;
1721;SDS011;858;53.190;8.596;2023-01-25T07:00:32;48.23;;;26.23;;
1721;SDS011;858;53.190;8.596;2023-01-25T07:02:58;43.87;;;23.77;;
1721;SDS011;858;53.190;8.596;2023-01-25T07:05:25;46.83;;;25.83;;
1721;SDS011;858;53.190;8.596;2023-01-25T07:07:52;47.53;;;25.70;;
1721;SDS011;858;53.190;8.596;2023-01-25T07:10:18;52.77;;;26.07;;
1721;SDS011;858;53.190;8.596;2023-01-25T07:12:46;54.47;;;27.93;;
1721;SDS011;858;53.190;8.596;2023-01-25T07:15:12;48.40;;;26.97;;
1721;SDS011;858;53.190;8.596;2023-01-25T07:17:40;52.70;;;27.23;;
1721;SDS011;858;53.190;8.596;2023-01-25T07:20:07;49.67;;;27.23;;
1721;SDS011;858;53.190;8.596;2023-01-25T07:22:33;50.67;;;28.47;;
1721;SDS011;858;53.190;8.596;2023-01-25T07:25:00;50.37;;;25.13;;
1721;SDS011;858;53.190;8.596;2023-01-25T07:27:26;54.97;;;28.67;;
1721;SDS011;858;53.190;8.596;2023-01-25T07:29:53;49.93;;;24.73;;
1721;SDS011;858;53.190;8.596;2023-01-25T07:32:19;54.13;;;27.20;;
1721;SDS011;858;53.190;8.596;2023-01-25T07:34:47;57.13;;;29.50;;
1721;SDS011;858;53.190;8.596;2023-01-25T07:37:15;59.63;;;28.77;;
1721;SDS011;858;53.190;8.596;2023-01-25T07:39:43;59.57;;;28.73;;
1721;SDS011;858;53.190;8.596;2023-01-25T07:42:14;55.03;;;27.03;;
1721;SDS011;858;53.190;8.596;2023-01-25T07:44:40;54.53;;;26.60;;
1721;SDS011;858;53.190;8.596;2023-01-25T07:47:07;55.90;;;30.50;;
1721;SDS011;858;53.190;8.596;2023-01-25T07:49:33;67.73;;;31.30;;
1721;SDS011;858;53.190;8.596;2023-01-25T07:52:02;58.83;;;26.83;;
1721;SDS011;858;53.190;8.596;2023-01-25T07:54:28;63.40;;;30.73;;
1721;SDS011;858;53.190;8.596;2023-01-25T07:56:55;55.33;;;28.00;;
1721;SDS011;858;53.190;8.596;2023-01-25T07:59:23;62.23;;;31.00;;
1721;SDS011;858;53.190;8.596;2023-01-25T08:01:49;56.60;;;28.77;;
1721;SDS011;858;53.190;8.596;2023-01-25T08:04:16;65.03;;;29.90;;
1721;SDS011;858;53.190;8.596;2023-01-25T08:06:42;64.80;;;29.60;;
1721;SDS011;858;53.190;8.596;2023-01-25T08:09:13;63.47;;;30.53;;
1721;SDS011;858;53.190;8.596;2023-01-25T08:11:40;73.13;;;33.03;;
1721;SDS011;858;53.190;8.596;2023-01-25T08:14:07;73.63;;;30.53;;
1721;SDS011;858;53.190;8.596;2023-01-25T08:16:35;68.03;;;32.13;;
1721;SDS011;858;53.190;8.596;2023-01-25T08:19:02;68.77;;;33.27;;
1721;SDS011;858;53.190;8.596;2023-01-25T08:21:30;70.47;;;33.80;;
1721;SDS011;858;53.190;8.596;2023-01-25T08:23:57;65.03;;;29.87;;
1721;SDS011;858;53.190;8.596;2023-01-25T08:26:25;73.10;;;34.17;;
1721;SDS011;858;53.190;8.596;2023-01-25T08:28:52;80.80;;;37.00;;
1721;SDS011;858;53.190;8.596;2023-01-25T08:31:20;76.70;;;36.63;;
1721;SDS011;858;53.190;8.596;2023-01-25T08:33:47;71.30;;;35.07;;
1721;SDS011;858;53.190;8.596;2023-01-25T08:36:14;77.57;;;35.83;;
1721;SDS011;858;53.190;8.596;2023-01-25T08:38:42;76.00;;;36.03;;
1721;SDS011;858;53.190;8.596;2023-01-25T08:41:10;72.43;;;34.50;;
1721;SDS011;858;53.190;8.596;2023-01-25T08:43:38;70.67;;;35.17;;
1721;SDS011;858;53.190;8.596;2023-01-25T08:46:05;87.17;;;39.00;;
1721;SDS011;858;53.190;8.596;2023-01-25T08:48:31;84.03;;;37.30;;
1721;SDS011;858;53.190;8.596;2023-01-25T08:50:58;82.50;;;37.30;;
1721;SDS011;858;53.190;8.596;2023-01-25T08:53:25;77.17;;;35.07;;
1721;SDS011;858;53.190;8.596;2023-01-25T08:55:52;81.57;;;36.33;;
1721;SDS011;858;53.190;8.596;2023-01-25T08:58:18;78.53;;;36.47;;
1721;SDS011;858;53.190;8.596;2023-01-25T09:00:47;95.23;;;41.80;;
1721;SDS011;858;53.190;8.596;2023-01-25T09:03:14;87.50;;;37.40;;
1721;SDS011;858;53.190;8.596;2023-01-25T09:05:42;83.50;;;37.97;;
1721;SDS011;858;53.190;8.596;2023-01-25T09:08:09;90.93;;;42.23;;
1721;SDS011;858;53.190;8.596;2023-01-25T09:10:35;94.47;;;40.57;;
1721;SDS011;858;53.190;8.596;2023-01-25T09:13:02;86.57;;;38.23;;
1721;SDS011;858;53.190;8.596;2023-01-25T09:15:28;89.63;;;40.47;;
1721;SDS011;858;53.190;8.596;2023-01-25T09:17:56;94.13;;;41.67;;
1721;SDS011;858;53.190;8.596;2023-01-25T09:20:22;102.00;;;42.90;;
1721;SDS011;858;53.190;8.596;2023-01-25T09:22:49;83.97;;;40.53;;
1721;SDS011;858;53.190;8.596;2023-01-25T09:25:15;95.53;;;43.07;;
1721;SDS011;858;53.190;8.596;2023-01-25T09:27:42;97.80;;;40.90;;
1721;SDS011;858;53.190;8.596;2023-01-25T09:30:09;84.50;;;37.00;;
1721;SDS011;858;53.190;8.596;2023-01-25T09:32:36;83.20;;;36.07;;
1721;SDS011;858;53.190;8.596;2023-01-25T09:35:05;82.80;;;39.10;;
1721;SDS011;858;53.190;8.596;2023-01-25T09:37:31;81.23;;;35.97;;
1721;SDS011;858;53.190;8.596;2023-01-25T09:39:58;91.07;;;38.70;;
1721;SDS011;858;53.190;8.596;2023-01-25T09:42:28;83.13;;;38.00;;
1721;SDS011;858;53.190;8.596;2023-01-25T09:45:06;79.97;;;34.50;;
1721;SDS011;858;53.190;8.596;2023-01-25T09:47:36;83.50;;;37.17;;
1721;SDS011;858;53.190;8.596;2023-01-25T09:50:10;78.70;;;35.90;;
1721;SDS011;858;53.190;8.596;2023-01-25T09:53:05;83.83;;;40.60;;
1721;SDS011;858;53.190;8.596;2023-01-25T09:55:36;81.30;;;37.97;;
1721;SDS011;858;53.190;8.596;2023-01-25T09:58:03;83.67;;;36.63;;
1721;SDS011;858;53.190;8.596;2023-01-25T10:00:30;83.20;;;38.53;;
1721;SDS011;858;53.190;8.596;2023-01-25T10:02:59;80.27;;;36.13;;
1721;SDS011;858;53.190;8.596;2023-01-25T10:05:29;72.83;;;35.07;;
1721;SDS011;858;53.190;8.596;2023-01-25T10:07:57;83.30;;;37.73;;
1721;SDS011;858;53.190;8.596;2023-01-25T10:10:27;85.17;;;38.23;;
1721;SDS011;858;53.190;8.596;2023-01-25T10:12:55;90.10;;;35.63;;
1721;SDS011;858;53.190;8.596;2023-01-25T10:15:22;77.50;;;33.27;;
1721;SDS011;858;53.190;8.596;2023-01-25T10:17:51;74.63;;;35.60;;
1721;SDS011;858;53.190;8.596;2023-01-25T10:20:24;86.50;;;35.30;;
1721;SDS011;858;53.190;8.596;2023-01-25T10:22:56;76.47;;;34.87;;
1721;SDS011;858;53.190;8.596;2023-01-25T10:25:30;92.50;;;36.80;;
1721;SDS011;858;53.190;8.596;2023-01-25T10:28:05;94.57;;;39.70;;
1721;SDS011;858;53.190;8.596;2023-01-25T10:30:36;89.53;;;36.20;;
1721;SDS011;858;53.190;8.596;2023-01-25T10:33:08;76.73;;;33.30;;
1721;SDS011;858;53.190;8.596;2023-01-25T10:35:37;82.10;;;33.97;;
1721;SDS011;858;53.190;8.596;2023-01-25T10:38:06;73.83;;;33.90;;
1721;SDS011;858;53.190;8.596;2023-01-25T10:40:42;75.67;;;35.47;;
1721;SDS011;858;53.190;8.596;2023-01-25T10:43:11;70.33;;;33.23;;
1721;SDS011;858;53.190;8.596;2023-01-25T10:45:39;85.67;;;37.47;;
1721;SDS011;858;53.190;8.596;2023-01-25T10:48:08;80.77;;;34.00;;
1721;SDS011;858;53.190;8.596;2023-01-25T10:50:41;70.40;;;32.53;;
1721;SDS011;858;53.190;8.596;2023-01-25T10:53:19;73.90;;;33.77;;
1721;SDS011;858;53.190;8.596;2023-01-25T10:55:52;76.00;;;34.90;;
1721;SDS011;858;53.190;8.596;2023-01-25T10:58:28;71.83;;;34.03;;
1721;SDS011;858;53.190;8.596;2023-01-25T11:00:55;79.57;;;34.43;;
1721;SDS011;858;53.190;8.596;2023-01-25T11:03:21;69.27;;;33.93;;
1721;SDS011;858;53.190;8.596;2023-01-25T11:05:52;76.30;;;31.63;;
1721;SDS011;858;53.190;8.596;2023-01-25T11:08:21;71.57;;;33.60;;
1721;SDS011;858;53.190;8.596;2023-01-25T11:10:48;70.03;;;32.50;;
1721;SDS011;858;53.190;8.596;2023-01-25T11:13:19;79.33;;;34.63;;
1721;SDS011;858;53.190;8.596;2023-01-25T11:15:47;65.33;;;29.97;;
1721;SDS011;858;53.190;8.596;2023-01-25T11:18:15;65.67;;;32.50;;
1721;SDS011;858;53.190;8.596;2023-01-25T11:20:43;68.77;;;31.40;;
1721;SDS011;858;53.190;8.596;2023-01-25T11:23:18;67.90;;;30.20;;
1721;SDS011;858;53.190;8.596;2023-01-25T11:25:47;76.00;;;34.60;;
1721;SDS011;858;53.190;8.596;2023-01-25T11:28:15;67.27;;;29.03;;
1721;SDS011;858;53.190;8.596;2023-01-25T11:30:42;69.50;;;30.93;;
1721;SDS011;858;53.190;8.596;2023-01-25T11:33:09;76.47;;;31.70;;
1721;SDS011;858;53.190;8.596;2023-01-25T11:35:36;68.70;;;30.60;;
1721;SDS011;858;53.190;8.596;2023-01-25T11:38:09;73.10;;;31.40;;
1721;SDS011;858;53.190;8.596;2023-01-25T11:40:38;68.03;;;29.00;;
1721;SDS011;858;53.190;8.596;2023-01-25T11:43:10;83.80;;;32.77;;
1721;SDS011;858;53.190;8.596;2023-01-25T11:45:45;68.47;;;30.87;;
1721;SDS011;858;53.190;8.596;2023-01-25T11:51:09;72.97;;;33.43;;
1721;SDS011;858;53.190;8.596;2023-01-25T11:53:50;70.87;;;33.60;;
1721;SDS011;858;53.190;8.596;2023-01-25T11:56:23;55.93;;;27.63;;
1721;SDS011;858;53.190;8.596;2023-01-25T11:58:58;67.57;;;29.03;;
1721;SDS011;858;53.190;8.596;2023-01-25T12:01:31;65.43;;;30.30;;
1721;SDS011;858;53.190;8.596;2023-01-25T12:04:04;66.53;;;30.27;;
1721;SDS011;858;53.190;8.596;2023-01-25T12:06:36;61.20;;;29.67;;
1721;SDS011;858;53.190;8.596;2023-01-25T12:09:14;60.53;;;29.40;;
1721;SDS011;858;53.190;8.596;2023-01-25T12:11:57;64.93;;;30.43;;
1721;SDS011;858;53.190;8.596;2023-01-25T12:14:31;69.80;;;31.93;;
1721;SDS011;858;53.190;8.596;2023-01-25T12:17:05;69.67;;;31.20;;
1721;SDS011;858;53.190;8.596;2023-01-25T12:19:39;71.80;;;31.17;;
1721;SDS011;858;53.190;8.596;2023-01-25T12:22:10;67.53;;;31.20;;
1721;SDS011;858;53.190;8.596;2023-01-25T12:24:42;57.93;;;31.00;;
1721;SDS011;858;53.190;8.596;2023-01-25T12:27:13;66.23;;;33.80;;
1721;SDS011;858;53.190;8.596;2023-01-25T12:29:46;64.43;;;31.77;;
1721;SDS011;858;53.190;8.596;2023-01-25T12:32:16;69.53;;;31.70;;
1721;SDS011;858;53.190;8.596;2023-01-25T12:34:45;65.10;;;31.40;;
1721;SDS011;858;53.190;8.596;2023-01-25T12:37:13;64.77;;;31.30;;
1721;SDS011;858;53.190;8.596;2023-01-25T12:39:43;70.53;;;29.33;;
1721;SDS011;858;53.190;8.596;2023-01-25T12:42:11;65.90;;;33.30;;
1721;SDS011;858;53.190;8.596;2023-01-25T12:44:41;65.70;;;32.73;;
1721;SDS011;858;53.190;8.596;2023-01-25T12:47:12;73.23;;;29.70;;
1721;SDS011;858;53.190;8.596;2023-01-25T12:49:40;65.93;;;31.43;;
1721;SDS011;858;53.190;8.596;2023-01-25T12:52:13;62.40;;;31.50;;
1721;SDS011;858;53.190;8.596;2023-01-25T12:54:42;56.80;;;27.80;;
1721;SDS011;858;53.190;8.596;2023-01-25T12:57:14;52.73;;;24.87;;
1721;SDS011;858;53.190;8.596;2023-01-25T12:59:44;58.30;;;28.80;;
1721;SDS011;858;53.190;8.596;2023-01-25T13:05:00;52.80;;;27.90;;
1721;SDS011;858;53.190;8.596;2023-01-25T13:07:29;52.23;;;24.97;;
1721;SDS011;858;53.190;8.596;2023-01-25T13:10:00;52.17;;;26.30;;
1721;SDS011;858;53.190;8.596;2023-01-25T13:12:28;57.37;;;26.33;;
1721;SDS011;858;53.190;8.596;2023-01-25T13:14:55;53.53;;;26.27;;
1721;SDS011;858;53.190;8.596;2023-01-25T13:17:22;57.63;;;25.57;;
1721;SDS011;858;53.190;8.596;2023-01-25T13:19:50;53.60;;;26.80;;
1721;SDS011;858;53.190;8.596;2023-01-25T13:25:17;62.00;;;29.23;;
1721;SDS011;858;53.190;8.596;2023-01-25T13:27:43;53.43;;;27.60;;
1721;SDS011;858;53.190;8.596;2023-01-25T13:32:55;58.80;;;28.10;;
1721;SDS011;858;53.190;8.596;2023-01-25T13:35:35;64.47;;;29.27;;
1721;SDS011;858;53.190;8.596;2023-01-25T13:38:03;59.23;;;29.93;;
1721;SDS011;858;53.190;8.596;2023-01-25T13:40:32;57.70;;;30.20;;
1721;SDS011;858;53.190;8.596;2023-01-25T13:43:00;66.60;;;30.47;;
1721;SDS011;858;53.190;8.596;2023-01-25T13:45:28;57.47;;;28.07;;
1721;SDS011;858;53.190;8.596;2023-01-25T13:47:58;66.07;;;28.97;;
1721;SDS011;858;53.190;8.596;2023-01-25T13:50:28;62.13;;;29.33;;
1721;SDS011;858;53.190;8.596;2023-01-25T13:52:56;63.53;;;29.53;;
1721;SDS011;858;53.190;8.596;2023-01-25T13:55:23;68.93;;;33.60;;
1721;SDS011;858;53.190;8.596;2023-01-25T13:57:51;66.70;;;32.97;;
1721;SDS011;858;53.190;8.596;2023-01-25T14:00:19;65.50;;;30.73;;
1721;SDS011;858;53.190;8.596;2023-01-25T14:02:47;68.93;;;31.00;;
1721;SDS011;858;53.190;8.596;2023-01-25T14:05:17;67.60;;;32.30;;
1721;SDS011;858;53.190;8.596;2023-01-25T14:07:45;71.63;;;33.70;;
1721;SDS011;858;53.190;8.596;2023-01-25T14:10:13;66.77;;;33.00;;
1721;SDS011;858;53.190;8.596;2023-01-25T14:12:42;70.70;;;32.47;;
1721;SDS011;858;53.190;8.596;2023-01-25T14:15:14;68.93;;;32.70;;
1721;SDS011;858;53.190;8.596;2023-01-25T14:17:41;79.03;;;34.07;;
1721;SDS011;858;53.190;8.596;2023-01-25T14:20:15;79.13;;;33.87;;
1721;SDS011;858;53.190;8.596;2023-01-25T14:22:45;81.77;;;36.17;;
1721;SDS011;858;53.190;8.596;2023-01-25T14:25:12;77.03;;;37.27;;
1721;SDS011;858;53.190;8.596;2023-01-25T14:27:43;84.20;;;37.40;;
1721;SDS011;858;53.190;8.596;2023-01-25T14:30:17;86.40;;;36.53;;
1721;SDS011;858;53.190;8.596;2023-01-25T14:32:43;83.23;;;37.57;;
1721;SDS011;858;53.190;8.596;2023-01-25T14:37:55;77.53;;;35.03;;
1721;SDS011;858;53.190;8.596;2023-01-25T14:40:22;78.53;;;35.67;;
1721;SDS011;858;53.190;8.596;2023-01-25T14:42:49;85.27;;;36.73;;
1721;SDS011;858;53.190;8.596;2023-01-25T14:45:18;80.77;;;34.40;;
1721;SDS011;858;53.190;8.596;2023-01-25T14:47:45;80.87;;;39.50;;
1721;SDS011;858;53.190;8.596;2023-01-25T14:50:31;86.27;;;39.43;;
1721;SDS011;858;53.190;8.596;2023-01-25T14:52:58;85.17;;;37.70;;
1721;SDS011;858;53.190;8.596;2023-01-25T14:55:25;83.67;;;36.20;;
1721;SDS011;858;53.190;8.596;2023-01-25T14:57:52;87.37;;;38.13;;
1721;SDS011;858;53.190;8.596;2023-01-25T15:00:26;81.67;;;37.03;;
1721;SDS011;858;53.190;8.596;2023-01-25T15:02:56;85.47;;;37.30;;
1721;SDS011;858;53.190;8.596;2023-01-25T15:05:24;82.70;;;36.30;;
1721;SDS011;858;53.190;8.596;2023-01-25T15:07:52;74.13;;;36.23;;
1721;SDS011;858;53.190;8.596;2023-01-25T15:10:20;74.63;;;35.03;;
1721;SDS011;858;53.190;8.596;2023-01-25T15:12:57;76.07;;;33.50;;
1721;SDS011;858;53.190;8.596;2023-01-25T15:15:26;79.37;;;34.20;;
1721;SDS011;858;53.190;8.596;2023-01-25T15:17:53;87.47;;;35.97;;
1721;SDS011;858;53.190;8.596;2023-01-25T15:20:33;77.30;;;35.43;;
1721;SDS011;858;53.190;8.596;2023-01-25T15:23:01;76.93;;;34.73;;